sensor_id;sensor_type;location;lat;lon;timestamp;P1;durP1;ratioP1;P2;durP2;ratioP2
44446;SDS011;30152;52.066;5.358;2023-06-04T06:21:27;8.00;;;2.63;;
44446;SDS011;30152;52.066;5.358;2023-06-04T06:23:56;9.88;;;2.97;;
44446;SDS011;30152;52.066;5.358;2023-06-04T06:26:21;6.43;;;2.40;;
44446;SDS011;30152;52.066;5.358;2023-06-04T06:28:47;10.43;;;2.72;;
44446;SDS011;30152;52.066;5.358;2023-06-04T06:31:13;12.77;;;2.47;;
44446;SDS011;30152;52.066;5.358;2023-06-04T06:33:38;13.50;;;2.58;;
44446;SDS011;30152;52.066;5.358;2023-06-04T06:36:07;10.27;;;2.78;;
44446;SDS011;30152;52.066;5.358;2023-06-04T06:38:34;11.75;;;2.83;;
44446;SDS011;30152;52.066;5.358;2023-06-04T06:41:00;7.80;;;2.20;;
44446;SDS011;30152;52.066;5.358;2023-06-04T06:43:25;8.18;;;2.30;;
44446;SDS011;30152;52.066;5.358;2023-06-04T06:45:51;8.40;;;2.33;;
44446;SDS011;30152;52.066;5.358;2023-06-04T06:48:17;10.27;;;2.65;;
44446;SDS011;30152;52.066;5.358;2023-06-04T06:50:43;6.57;;;2.45;;
44446;SDS011;30152;52.066;5.358;2023-06-04T06:53:08;8.38;;;2.50;;
44446;SDS011;30152;52.066;5.358;2023-06-04T06:55:34;5.05;;;2.35;;
44446;SDS011;30152;52.066;5.358;2023-06-04T06:58:00;8.00;;;2.10;;
44446;SDS011;30152;52.066;5.358;2023-06-04T07:00:26;9.90;;;2.78;;
44446;SDS011;30152;52.066;5.358;2023-06-04T07:02:55;8.20;;;2.00;;
44446;SDS011;30152;52.066;5.358;2023-06-04T07:05:21;6.68;;;2.38;;
44446;SDS011;30152;52.066;5.358;2023-06-04T07:07:46;8.32;;;2.40;;
44446;SDS011;30152;52.066;5.358;2023-06-04T07:10:12;6.30;;;2.08;;
44446;SDS011;30152;52.066;5.358;2023-06-04T07:12:38;6.57;;;2.10;;
44446;SDS011;30152;52.066;5.358;2023-06-04T07:15:05;5.68;;;2.13;;
44446;SDS011;30152;52.066;5.358;2023-06-04T07:17:31;6.55;;;2.08;;
44446;SDS011;30152;52.066;5.358;2023-06-04T07:19:57;7.20;;;2.20;;
44446;SDS011;30152;52.066;5.358;2023-06-04T07:22:22;6.50;;;2.30;;
44446;SDS011;30152;52.066;5.358;2023-06-04T07:24:48;9.43;;;2.28;;
44446;SDS011;30152;52.066;5.358;2023-06-04T07:27:15;7.40;;;1.90;;
44446;SDS011;30152;52.066;5.358;2023-06-04T07:29:42;5.85;;;1.70;;
44446;SDS011;30152;52.066;5.358;2023-06-04T07:32:09;7.18;;;2.10;;
44446;SDS011;30152;52.066;5.358;2023-06-04T07:34:36;9.32;;;1.90;;
44446;SDS011;30152;52.066;5.358;2023-06-04T07:37:03;8.00;;;2.13;;
44446;SDS011;30152;52.066;5.358;2023-06-04T07:39:28;6.80;;;2.30;;
44446;SDS011;30152;52.066;5.358;2023-06-04T07:41:54;5.55;;;1.98;;
44446;SDS011;30152;52.066;5.358;2023-06-04T07:44:20;7.20;;;1.67;;
44446;SDS011;30152;52.066;5.358;2023-06-04T07:46:45;9.43;;;2.28;;
44446;SDS011;30152;52.066;5.358;2023-06-04T07:49:11;5.10;;;1.73;;
44446;SDS011;30152;52.066;5.358;2023-06-04T07:51:36;8.75;;;2.10;;
44446;SDS011;30152;52.066;5.358;2023-06-04T07:54:02;5.57;;;1.70;;
44446;SDS011;30152;52.066;5.358;2023-06-04T07:56:28;6.40;;;1.45;;
44446;SDS011;30152;52.066;5.358;2023-06-04T07:58:53;6.18;;;2.10;;
44446;SDS011;30152;52.066;5.358;2023-06-04T08:01:20;8.55;;;1.90;;
44446;SDS011;30152;52.066;5.358;2023-06-04T08:03:46;7.68;;;1.85;;
44446;SDS011;30152;52.066;5.358;2023-06-04T08:06:12;7.80;;;1.70;;
44446;SDS011;30152;52.066;5.358;2023-06-04T08:08:41;11.00;;;1.77;;
44446;SDS011;30152;52.066;5.358;2023-06-04T08:11:10;10.35;;;1.60;;
44446;SDS011;30152;52.066;5.358;2023-06-04T08:13:36;5.05;;;1.50;;
44446;SDS011;30152;52.066;5.358;2023-06-04T08:16:01;7.88;;;1.98;;
44446;SDS011;30152;52.066;5.358;2023-06-04T08:18:27;8.13;;;1.55;;
44446;SDS011;30152;52.066;5.358;2023-06-04T08:20:53;7.30;;;1.40;;
44446;SDS011;30152;52.066;5.358;2023-06-04T08:23:19;5.55;;;1.35;;
44446;SDS011;30152;52.066;5.358;2023-06-04T08:25:45;7.38;;;1.40;;
44446;SDS011;30152;52.066;5.358;2023-06-04T08:28:10;5.05;;;1.50;;
44446;SDS011;30152;52.066;5.358;2023-06-04T08:30:38;7.70;;;1.52;;
44446;SDS011;30152;52.066;5.358;2023-06-04T08:33:04;4.82;;;1.60;;
44446;SDS011;30152;52.066;5.358;2023-06-04T08:35:30;6.43;;;1.30;;
44446;SDS011;30152;52.066;5.358;2023-06-04T08:37:55;5.53;;;1.05;;
44446;SDS011;30152;52.066;5.358;2023-06-04T08:40:21;6.32;;;1.33;;
44446;SDS011;30152;52.066;5.358;2023-06-04T08:42:47;4.60;;;1.40;;
44446;SDS011;30152;52.066;5.358;2023-06-04T08:45:13;6.05;;;1.60;;
44446;SDS011;30152;52.066;5.358;2023-06-04T08:47:43;6.13;;;1.30;;
44446;SDS011;30152;52.066;5.358;2023-06-04T08:50:10;5.25;;;1.30;;
44446;SDS011;30152;52.066;5.358;2023-06-04T08:52:38;8.15;;;1.30;;
44446;SDS011;30152;52.066;5.358;2023-06-04T08:55:05;8.02;;;1.63;;
44446;SDS011;30152;52.066;5.358;2023-06-04T08:57:31;7.05;;;1.92;;
44446;SDS011;30152;52.066;5.358;2023-06-04T08:59:56;6.65;;;1.20;;
44446;SDS011;30152;52.066;5.358;2023-06-04T09:02:22;5.20;;;1.30;;
44446;SDS011;30152;52.066;5.358;2023-06-04T09:04:48;6.30;;;1.17;;
44446;SDS011;30152;52.066;5.358;2023-06-04T09:07:15;6.93;;;1.13;;
44446;SDS011;30152;52.066;5.358;2023-06-04T09:09:42;4.82;;;1.50;;
44446;SDS011;30152;52.066;5.358;2023-06-04T09:12:12;7.85;;;1.58;;
44446;SDS011;30152;52.066;5.358;2023-06-04T09:14:48;7.10;;;1.40;;
44446;SDS011;30152;52.066;5.358;2023-06-04T09:17:15;3.20;;;0.90;;
44446;SDS011;30152;52.066;5.358;2023-06-04T09:19:50;5.47;;;1.20;;
44446;SDS011;30152;52.066;5.358;2023-06-04T09:22:17;5.88;;;1.35;;
44446;SDS011;30152;52.066;5.358;2023-06-04T09:24:44;4.38;;;1.10;;
44446;SDS011;30152;52.066;5.358;2023-06-04T09:27:18;5.90;;;1.20;;
44446;SDS011;30152;52.066;5.358;2023-06-04T09:29:48;7.68;;;1.45;;
44446;SDS011;30152;52.066;5.358;2023-06-04T09:32:24;4.90;;;1.40;;
44446;SDS011;30152;52.066;5.358;2023-06-04T09:34:51;5.15;;;1.38;;
44446;SDS011;30152;52.066;5.358;2023-06-04T09:37:18;8.15;;;1.40;;
44446;SDS011;30152;52.066;5.358;2023-06-04T09:39:44;6.47;;;1.55;;
44446;SDS011;30152;52.066;5.358;2023-06-04T09:42:18;7.05;;;1.17;;
44446;SDS011;30152;52.066;5.358;2023-06-04T09:44:44;5.15;;;1.25;;
44446;SDS011;30152;52.066;5.358;2023-06-04T09:47:13;6.22;;;1.42;;
44446;SDS011;30152;52.066;5.358;2023-06-04T09:49:42;6.63;;;1.13;;
44446;SDS011;30152;52.066;5.358;2023-06-04T09:52:13;7.53;;;1.30;;
44446;SDS011;30152;52.066;5.358;2023-06-04T09:54:39;4.43;;;1.15;;
44446;SDS011;30152;52.066;5.358;2023-06-04T09:57:16;5.85;;;1.40;;
44446;SDS011;30152;52.066;5.358;2023-06-04T09:59:46;5.47;;;1.23;;
44446;SDS011;30152;52.066;5.358;2023-06-04T10:02:14;7.40;;;1.42;;
44446;SDS011;30152;52.066;5.358;2023-06-04T10:04:44;4.78;;;1.10;;
44446;SDS011;30152;52.066;5.358;2023-06-04T10:07:19;4.88;;;1.30;;
44446;SDS011;30152;52.066;5.358;2023-06-04T10:09:45;7.30;;;1.15;;
44446;SDS011;30152;52.066;5.358;2023-06-04T10:12:14;5.28;;;1.30;;
44446;SDS011;30152;52.066;5.358;2023-06-04T10:14:43;5.13;;;1.08;;
44446;SDS011;30152;52.066;5.358;2023-06-04T10:17:16;4.47;;;1.23;;
44446;SDS011;30152;52.066;5.358;2023-06-04T10:19:46;4.20;;;1.10;;
44446;SDS011;30152;52.066;5.358;2023-06-04T10:22:14;6.60;;;1.13;;
44446;SDS011;30152;52.066;5.358;2023-06-04T10:24:39;5.35;;;1.15;;
44446;SDS011;30152;52.066;5.358;2023-06-04T10:27:05;5.43;;;1.40;;
44446;SDS011;30152;52.066;5.358;2023-06-04T10:29:35;6.63;;;1.52;;
44446;SDS011;30152;52.066;5.358;2023-06-04T10:32:02;4.88;;;1.00;;
44446;SDS011;30152;52.066;5.358;2023-06-04T10:34:28;8.70;;;1.15;;
44446;SDS011;30152;52.066;5.358;2023-06-04T10:36:54;7.63;;;1.20;;
44446;SDS011;30152;52.066;5.358;2023-06-04T10:39:26;7.68;;;1.02;;
44446;SDS011;30152;52.066;5.358;2023-06-04T10:42:02;5.00;;;1.27;;
44446;SDS011;30152;52.066;5.358;2023-06-04T10:44:30;4.20;;;1.13;;
44446;SDS011;30152;52.066;5.358;2023-06-04T10:46:56;4.22;;;1.20;;
44446;SDS011;30152;52.066;5.358;2023-06-04T10:49:26;6.38;;;1.27;;
44446;SDS011;30152;52.066;5.358;2023-06-04T10:51:53;5.07;;;1.38;;
44446;SDS011;30152;52.066;5.358;2023-06-04T10:54:24;4.20;;;1.20;;
44446;SDS011;30152;52.066;5.358;2023-06-04T10:56:50;8.32;;;1.20;;
44446;SDS011;30152;52.066;5.358;2023-06-04T10:59:17;7.43;;;0.90;;
44446;SDS011;30152;52.066;5.358;2023-06-04T11:01:43;4.53;;;0.98;;
44446;SDS011;30152;52.066;5.358;2023-06-04T11:06:46;8.02;;;1.08;;
44446;SDS011;30152;52.066;5.358;2023-06-04T11:09:12;3.17;;;0.88;;
44446;SDS011;30152;52.066;5.358;2023-06-04T11:11:41;6.03;;;1.27;;
44446;SDS011;30152;52.066;5.358;2023-06-04T11:14:08;5.82;;;1.33;;
44446;SDS011;30152;52.066;5.358;2023-06-04T11:16:34;4.88;;;0.93;;
44446;SDS011;30152;52.066;5.358;2023-06-04T11:19:00;4.93;;;1.17;;
44446;SDS011;30152;52.066;5.358;2023-06-04T11:21:27;6.13;;;1.52;;
44446;SDS011;30152;52.066;5.358;2023-06-04T11:23:59;3.97;;;0.82;;
44446;SDS011;30152;52.066;5.358;2023-06-04T11:26:34;3.33;;;1.00;;
44446;SDS011;30152;52.066;5.358;2023-06-04T11:29:02;5.22;;;1.20;;
44446;SDS011;30152;52.066;5.358;2023-06-04T11:31:44;6.95;;;1.40;;
44446;SDS011;30152;52.066;5.358;2023-06-04T11:34:21;4.65;;;1.10;;
44446;SDS011;30152;52.066;5.358;2023-06-04T11:36:51;3.05;;;0.93;;
44446;SDS011;30152;52.066;5.358;2023-06-04T11:39:20;6.70;;;1.25;;
44446;SDS011;30152;52.066;5.358;2023-06-04T11:41:47;5.85;;;0.98;;
44446;SDS011;30152;52.066;5.358;2023-06-04T11:44:17;5.25;;;1.40;;
44446;SDS011;30152;52.066;5.358;2023-06-04T11:46:44;7.95;;;1.20;;
44446;SDS011;30152;52.066;5.358;2023-06-04T11:49:16;9.43;;;1.23;;
44446;SDS011;30152;52.066;5.358;2023-06-04T11:51:49;7.07;;;1.15;;
44446;SDS011;30152;52.066;5.358;2023-06-04T11:54:16;6.75;;;0.90;;
44446;SDS011;30152;52.066;5.358;2023-06-04T11:56:43;6.05;;;1.02;;
44446;SDS011;30152;52.066;5.358;2023-06-04T11:59:13;4.15;;;0.93;;
44446;SDS011;30152;52.066;5.358;2023-06-04T12:01:40;3.83;;;1.15;;
44446;SDS011;30152;52.066;5.358;2023-06-04T12:04:17;4.72;;;1.27;;
44446;SDS011;30152;52.066;5.358;2023-06-04T12:06:53;5.65;;;1.05;;
44446;SDS011;30152;52.066;5.358;2023-06-04T12:09:19;4.13;;;1.13;;
44446;SDS011;30152;52.066;5.358;2023-06-04T12:11:46;5.45;;;0.95;;
44446;SDS011;30152;52.066;5.358;2023-06-04T12:14:15;6.68;;;0.93;;
44446;SDS011;30152;52.066;5.358;2023-06-04T12:16:43;5.20;;;1.00;;
44446;SDS011;30152;52.066;5.358;2023-06-04T12:19:18;6.03;;;1.17;;
44446;SDS011;30152;52.066;5.358;2023-06-04T12:21:44;3.45;;;0.80;;
44446;SDS011;30152;52.066;5.358;2023-06-04T12:24:13;5.93;;;1.27;;
44446;SDS011;30152;52.066;5.358;2023-06-04T12:26:40;7.07;;;1.08;;
44446;SDS011;30152;52.066;5.358;2023-06-04T12:29:13;3.20;;;1.00;;
44446;SDS011;30152;52.066;5.358;2023-06-04T12:31:43;4.35;;;1.13;;
44446;SDS011;30152;52.066;5.358;2023-06-04T12:34:10;5.20;;;1.30;;
44446;SDS011;30152;52.066;5.358;2023-06-04T12:36:38;5.07;;;1.08;;
44446;SDS011;30152;52.066;5.358;2023-06-04T12:39:03;3.90;;;1.13;;
44446;SDS011;30152;52.066;5.358;2023-06-04T12:41:33;6.50;;;1.23;;
44446;SDS011;30152;52.066;5.358;2023-06-04T12:43:59;4.15;;;1.17;;
44446;SDS011;30152;52.066;5.358;2023-06-04T12:46:25;3.55;;;1.15;;
44446;SDS011;30152;52.066;5.358;2023-06-04T12:48:51;6.28;;;1.17;;
44446;SDS011;30152;52.066;5.358;2023-06-04T12:51:18;5.38;;;1.20;;
44446;SDS011;30152;52.066;5.358;2023-06-04T12:53:45;4.47;;;1.23;;
44446;SDS011;30152;52.066;5.358;2023-06-04T12:56:11;5.82;;;1.25;;
44446;SDS011;30152;52.066;5.358;2023-06-04T12:58:37;4.55;;;1.00;;
44446;SDS011;30152;52.066;5.358;2023-06-04T13:01:02;4.47;;;1.10;;
44446;SDS011;30152;52.066;5.358;2023-06-04T13:03:32;4.15;;;1.08;;
44446;SDS011;30152;52.066;5.358;2023-06-04T13:06:00;3.80;;;1.10;;
44446;SDS011;30152;52.066;5.358;2023-06-04T13:08:27;3.45;;;0.88;;
44446;SDS011;30152;52.066;5.358;2023-06-04T13:10:53;5.60;;;1.30;;
44446;SDS011;30152;52.066;5.358;2023-06-04T13:13:19;3.10;;;1.02;;
44446;SDS011;30152;52.066;5.358;2023-06-04T13:15:45;3.25;;;1.17;;
44446;SDS011;30152;52.066;5.358;2023-06-04T13:18:11;5.43;;;1.00;;
44446;SDS011;30152;52.066;5.358;2023-06-04T13:20:37;4.78;;;1.05;;
44446;SDS011;30152;52.066;5.358;2023-06-04T13:23:04;5.40;;;1.30;;
44446;SDS011;30152;52.066;5.358;2023-06-04T13:25:30;4.28;;;1.10;;
44446;SDS011;30152;52.066;5.358;2023-06-04T13:27:57;5.95;;;1.30;;
44446;SDS011;30152;52.066;5.358;2023-06-04T13:30:26;6.38;;;1.05;;
44446;SDS011;30152;52.066;5.358;2023-06-04T13:32:53;4.45;;;1.30;;
44446;SDS011;30152;52.066;5.358;2023-06-04T13:35:19;4.80;;;1.17;;
44446;SDS011;30152;52.066;5.358;2023-06-04T13:37:44;4.35;;;1.10;;
44446;SDS011;30152;52.066;5.358;2023-06-04T13:40:10;6.70;;;1.20;;
44446;SDS011;30152;52.066;5.358;2023-06-04T13:42:36;5.43;;;1.35;;
44446;SDS011;30152;52.066;5.358;2023-06-04T13:45:02;4.00;;;1.05;;
44446;SDS011;30152;52.066;5.358;2023-06-04T13:47:28;4.78;;;1.40;;
44446;SDS011;30152;52.066;5.358;2023-06-04T13:49:54;9.90;;;1.20;;
44446;SDS011;30152;52.066;5.358;2023-06-04T13:52:19;4.55;;;1.20;;
44446;SDS011;30152;52.066;5.358;2023-06-04T13:54:46;5.45;;;1.25;;
44446;SDS011;30152;52.066;5.358;2023-06-04T13:57:11;10.98;;;1.95;;
44446;SDS011;30152;52.066;5.358;2023-06-04T13:59:40;9.48;;;1.80;;
44446;SDS011;30152;52.066;5.358;2023-06-04T14:02:06;5.53;;;1.17;;
44446;SDS011;30152;52.066;5.358;2023-06-04T14:04:31;10.73;;;1.60;;
44446;SDS011;30152;52.066;5.358;2023-06-04T14:06:57;6.97;;;1.45;;
44446;SDS011;30152;52.066;5.358;2023-06-04T14:09:23;5.25;;;1.40;;
44446;SDS011;30152;52.066;5.358;2023-06-04T14:11:48;6.40;;;1.05;;
44446;SDS011;30152;52.066;5.358;2023-06-04T14:14:16;8.00;;;1.30;;
44446;SDS011;30152;52.066;5.358;2023-06-04T14:16:42;10.68;;;1.38;;
44446;SDS011;30152;52.066;5.358;2023-06-04T14:19:12;3.05;;;0.95;;
44446;SDS011;30152;52.066;5.358;2023-06-04T14:21:37;4.82;;;1.38;;
44446;SDS011;30152;52.066;5.358;2023-06-04T14:24:03;6.75;;;1.42;;
44446;SDS011;30152;52.066;5.358;2023-06-04T14:26:29;5.38;;;1.13;;
44446;SDS011;30152;52.066;5.358;2023-06-04T14:28:54;4.75;;;1.23;;
44446;SDS011;30152;52.066;5.358;2023-06-04T14:31:20;7.05;;;1.25;;
44446;SDS011;30152;52.066;5.358;2023-06-04T14:33:46;6.85;;;1.70;;
44446;SDS011;30152;52.066;5.358;2023-06-04T14:36:12;5.07;;;1.30;;
44446;SDS011;30152;52.066;5.358;2023-06-04T14:38:38;8.05;;;1.00;;
44446;SDS011;30152;52.066;5.358;2023-06-04T14:41:04;3.63;;;0.93;;
44446;SDS011;30152;52.066;5.358;2023-06-04T14:43:30;7.90;;;1.42;;
44446;SDS011;30152;52.066;5.358;2023-06-04T14:45:56;4.75;;;1.27;;
44446;SDS011;30152;52.066;5.358;2023-06-04T14:48:22;6.13;;;1.50;;
44446;SDS011;30152;52.066;5.358;2023-06-04T14:50:49;5.80;;;1.25;;
44446;SDS011;30152;52.066;5.358;2023-06-04T14:53:18;6.10;;;1.27;;
44446;SDS011;30152;52.066;5.358;2023-06-04T14:55:45;6.43;;;1.10;;
44446;SDS011;30152;52.066;5.358;2023-06-04T14:58:14;8.95;;;1.30;;
44446;SDS011;30152;52.066;5.358;2023-06-04T15:00:41;5.43;;;1.08;;
44446;SDS011;30152;52.066;5.358;2023-06-04T15:03:07;8.60;;;2.00;;
44446;SDS011;30152;52.066;5.358;2023-06-04T15:05:33;6.07;;;1.35;;
44446;SDS011;30152;52.066;5.358;2023-06-04T15:07:59;5.95;;;1.05;;
44446;SDS011;30152;52.066;5.358;2023-06-04T15:10:25;5.85;;;1.70;;
44446;SDS011;30152;52.066;5.358;2023-06-04T15:12:52;4.60;;;1.10;;
44446;SDS011;30152;52.066;5.358;2023-06-04T15:15:18;4.78;;;1.50;;
44446;SDS011;30152;52.066;5.358;2023-06-04T15:17:44;6.20;;;1.30;;
44446;SDS011;30152;52.066;5.358;2023-06-04T15:20:10;5.28;;;1.10;;
44446;SDS011;30152;52.066;5.358;2023-06-04T15:22:36;5.00;;;1.08;;
44446;SDS011;30152;52.066;5.358;2023-06-04T15:25:01;7.78;;;2.08;;
44446;SDS011;30152;52.066;5.358;2023-06-04T15:27:27;7.32;;;1.75;;
44446;SDS011;30152;52.066;5.358;2023-06-04T15:29:53;6.82;;;1.70;;
44446;SDS011;30152;52.066;5.358;2023-06-04T15:32:20;5.45;;;1.42;;
44446;SDS011;30152;52.066;5.358;2023-06-04T15:34:46;5.95;;;1.55;;
44446;SDS011;30152;52.066;5.358;2023-06-04T15:37:12;5.60;;;1.38;;
44446;SDS011;30152;52.066;5.358;2023-06-04T15:39:38;4.72;;;1.30;;
44446;SDS011;30152;52.066;5.358;2023-06-04T15:42:05;8.55;;;1.40;;
44446;SDS011;30152;52.066;5.358;2023-06-04T15:44:32;6.22;;;1.50;;
44446;SDS011;30152;52.066;5.358;2023-06-04T15:46:58;6.18;;;1.45;;
44446;SDS011;30152;52.066;5.358;2023-06-04T15:49:24;4.68;;;1.55;;
44446;SDS011;30152;52.066;5.358;2023-06-04T15:51:50;6.10;;;1.63;;
44446;SDS011;30152;52.066;5.358;2023-06-04T15:54:16;8.75;;;1.73;;
44446;SDS011;30152;52.066;5.358;2023-06-04T15:56:41;5.15;;;1.60;;
44446;SDS011;30152;52.066;5.358;2023-06-04T15:59:07;4.88;;;1.30;;
44446;SDS011;30152;52.066;5.358;2023-06-04T16:01:33;4.75;;;1.55;;
44446;SDS011;30152;52.066;5.358;2023-06-04T16:04:00;5.85;;;1.10;;
44446;SDS011;30152;52.066;5.358;2023-06-04T16:06:26;6.47;;;1.90;;
44446;SDS011;30152;52.066;5.358;2023-06-04T16:08:52;5.45;;;1.50;;
44446;SDS011;30152;52.066;5.358;2023-06-04T16:11:18;5.40;;;1.58;;
44446;SDS011;30152;52.066;5.358;2023-06-04T16:13:43;6.63;;;1.30;;
44446;SDS011;30152;52.066;5.358;2023-06-04T16:16:10;6.57;;;1.65;;
44446;SDS011;30152;52.066;5.358;2023-06-04T16:18:37;3.95;;;1.38;;
44446;SDS011;30152;52.066;5.358;2023-06-04T16:21:04;6.38;;;1.20;;
44446;SDS011;30152;52.066;5.358;2023-06-04T16:23:30;8.13;;;1.73;;
44446;SDS011;30152;52.066;5.358;2023-06-04T16:25:56;6.38;;;1.70;;
44446;SDS011;30152;52.066;5.358;2023-06-04T16:28:22;6.53;;;1.40;;
44446;SDS011;30152;52.066;5.358;2023-06-04T16:30:48;5.05;;;1.55;;
44446;SDS011;30152;52.066;5.358;2023-06-04T16:33:14;7.70;;;1.73;;
44446;SDS011;30152;52.066;5.358;2023-06-04T16:35:40;5.60;;;1.45;;
44446;SDS011;30152;52.066;5.358;2023-06-04T16:38:06;6.95;;;1.65;;
44446;SDS011;30152;52.066;5.358;2023-06-04T16:40:32;10.30;;;1.50;;
44446;SDS011;30152;52.066;5.358;2023-06-04T16:42:57;9.50;;;1.80;;
44446;SDS011;30152;52.066;5.358;2023-06-04T16:45:23;7.95;;;1.70;;
44446;SDS011;30152;52.066;5.358;2023-06-04T16:47:49;7.80;;;1.70;;
44446;SDS011;30152;52.066;5.358;2023-06-04T16:50:15;5.05;;;1.30;;
44446;SDS011;30152;52.066;5.358;2023-06-04T16:52:41;6.93;;;1.90;;
44446;SDS011;30152;52.066;5.358;2023-06-04T16:55:07;8.95;;;2.08;;
44446;SDS011;30152;52.066;5.358;2023-06-04T16:57:37;5.68;;;1.60;;
44446;SDS011;30152;52.066;5.358;2023-06-04T17:00:04;7.70;;;1.63;;
44446;SDS011;30152;52.066;5.358;2023-06-04T17:02:30;7.30;;;1.50;;
44446;SDS011;30152;52.066;5.358;2023-06-04T17:04:56;5.30;;;1.70;;
44446;SDS011;30152;52.066;5.358;2023-06-04T17:07:22;8.45;;;2.03;;
44446;SDS011;30152;52.066;5.358;2023-06-04T17:09:48;7.78;;;2.30;;
44446;SDS011;30152;52.066;5.358;2023-06-04T17:12:14;6.22;;;2.10;;
44446;SDS011;30152;52.066;5.358;2023-06-04T17:14:40;6.68;;;1.80;;
44446;SDS011;30152;52.066;5.358;2023-06-04T17:17:06;7.90;;;2.42;;
44446;SDS011;30152;52.066;5.358;2023-06-04T17:19:32;6.63;;;1.77;;
44446;SDS011;30152;52.066;5.358;2023-06-04T17:21:59;6.38;;;2.25;;
44446;SDS011;30152;52.066;5.358;2023-06-04T17:24:25;7.15;;;1.80;;
44446;SDS011;30152;52.066;5.358;2023-06-04T17:26:52;5.20;;;1.50;;
44446;SDS011;30152;52.066;5.358;2023-06-04T17:29:17;7.20;;;1.70;;
44446;SDS011;30152;52.066;5.358;2023-06-04T17:31:43;7.00;;;2.00;;
44446;SDS011;30152;52.066;5.358;2023-06-04T17:34:09;6.75;;;1.70;;
44446;SDS011;30152;52.066;5.358;2023-06-04T17:36:35;6.60;;;1.83;;
44446;SDS011;30152;52.066;5.358;2023-06-04T17:39:00;7.25;;;1.77;;
44446;SDS011;30152;52.066;5.358;2023-06-04T17:41:26;6.10;;;1.77;;
44446;SDS011;30152;52.066;5.358;2023-06-04T17:43:52;6.38;;;1.60;;
44446;SDS011;30152;52.066;5.358;2023-06-04T17:46:19;6.47;;;2.55;;
44446;SDS011;30152;52.066;5.358;2023-06-04T17:48:45;5.43;;;1.48;;
44446;SDS011;30152;52.066;5.358;2023-06-04T17:51:10;7.13;;;1.98;;
44446;SDS011;30152;52.066;5.358;2023-06-04T17:53:37;9.65;;;2.60;;
44446;SDS011;30152;52.066;5.358;2023-06-04T17:56:02;5.40;;;1.92;;
44446;SDS011;30152;52.066;5.358;2023-06-04T17:58:28;6.85;;;1.95;;
44446;SDS011;30152;52.066;5.358;2023-06-04T18:00:54;5.25;;;1.60;;
44446;SDS011;30152;52.066;5.358;2023-06-04T18:03:20;7.03;;;1.65;;
44446;SDS011;30152;52.066;5.358;2023-06-04T18:05:45;6.47;;;2.03;;
44446;SDS011;30152;52.066;5.358;2023-06-04T18:08:11;8.30;;;1.92;;
44446;SDS011;30152;52.066;5.358;2023-06-04T18:10:38;7.10;;;1.90;;
44446;SDS011;30152;52.066;5.358;2023-06-04T18:13:04;5.80;;;2.55;;
44446;SDS011;30152;52.066;5.358;2023-06-04T18:15:29;8.10;;;1.88;;
44446;SDS011;30152;52.066;5.358;2023-06-04T18:17:55;9.55;;;2.53;;
44446;SDS011;30152;52.066;5.358;2023-06-04T18:20:21;6.30;;;1.75;;
44446;SDS011;30152;52.066;5.358;2023-06-04T18:22:47;6.70;;;2.30;;
44446;SDS011;30152;52.066;5.358;2023-06-04T18:25:13;7.63;;;1.95;;
44446;SDS011;30152;52.066;5.358;2023-06-04T18:27:39;5.55;;;1.90;;
44446;SDS011;30152;52.066;5.358;2023-06-04T18:30:05;6.32;;;1.90;;
44446;SDS011;30152;52.066;5.358;2023-06-04T18:32:31;6.68;;;2.28;;
44446;SDS011;30152;52.066;5.358;2023-06-04T18:34:57;5.63;;;2.38;;
44446;SDS011;30152;52.066;5.358;2023-06-04T18:37:22;5.10;;;1.98;;
44446;SDS011;30152;52.066;5.358;2023-06-04T18:39:48;7.82;;;2.65;;
44446;SDS011;30152;52.066;5.358;2023-06-04T18:42:14;8.57;;;2.03;;
44446;SDS011;30152;52.066;5.358;2023-06-04T18:44:40;9.80;;;1.98;;
44446;SDS011;30152;52.066;5.358;2023-06-04T18:47:07;7.15;;;1.83;;
44446;SDS011;30152;52.066;5.358;2023-06-04T18:49:33;5.45;;;1.80;;
44446;SDS011;30152;52.066;5.358;2023-06-04T18:51:59;8.50;;;2.13;;
44446;SDS011;30152;52.066;5.358;2023-06-04T18:54:25;10.80;;;2.22;;
44446;SDS011;30152;52.066;5.358;2023-06-04T18:56:51;9.05;;;2.15;;
44446;SDS011;30152;52.066;5.358;2023-06-04T18:59:17;8.25;;;2.28;;
44446;SDS011;30152;52.066;5.358;2023-06-04T19:01:43;6.47;;;2.28;;
44446;SDS011;30152;52.066;5.358;2023-06-04T19:04:09;6.20;;;1.73;;
44446;SDS011;30152;52.066;5.358;2023-06-04T19:06:37;8.10;;;1.60;;
44446;SDS011;30152;52.066;5.358;2023-06-04T19:09:03;7.50;;;1.75;;
44446;SDS011;30152;52.066;5.358;2023-06-04T19:11:29;7.38;;;2.08;;
44446;SDS011;30152;52.066;5.358;2023-06-04T19:13:55;10.68;;;2.28;;
44446;SDS011;30152;52.066;5.358;2023-06-04T19:16:22;10.43;;;3.83;;
44446;SDS011;30152;52.066;5.358;2023-06-04T19:18:48;12.82;;;3.80;;
44446;SDS011;30152;52.066;5.358;2023-06-04T19:21:14;8.23;;;2.33;;
44446;SDS011;30152;52.066;5.358;2023-06-04T19:23:42;10.60;;;2.50;;
44446;SDS011;30152;52.066;5.358;2023-06-04T19:26:08;8.95;;;3.08;;
44446;SDS011;30152;52.066;5.358;2023-06-04T19:28:34;14.00;;;3.63;;
44446;SDS011;30152;52.066;5.358;2023-06-04T19:31:00;11.80;;;4.35;;
44446;SDS011;30152;52.066;5.358;2023-06-04T19:33:27;11.32;;;2.10;;
44446;SDS011;30152;52.066;5.358;2023-06-04T19:35:57;4.32;;;1.77;;
44446;SDS011;30152;52.066;5.358;2023-06-04T19:38:23;5.93;;;2.05;;
44446;SDS011;30152;52.066;5.358;2023-06-04T19:40:49;7.15;;;2.70;;
44446;SDS011;30152;52.066;5.358;2023-06-04T19:43:15;10.25;;;2.58;;
44446;SDS011;30152;52.066;5.358;2023-06-04T19:45:42;11.95;;;2.50;;
44446;SDS011;30152;52.066;5.358;2023-06-04T19:48:10;5.55;;;1.75;;
44446;SDS011;30152;52.066;5.358;2023-06-04T19:50:36;6.55;;;1.95;;
44446;SDS011;30152;52.066;5.358;2023-06-04T19:53:02;9.43;;;2.40;;
44446;SDS011;30152;52.066;5.358;2023-06-04T19:55:28;6.50;;;1.92;;
44446;SDS011;30152;52.066;5.358;2023-06-04T19:57:54;9.88;;;2.10;;
44446;SDS011;30152;52.066;5.358;2023-06-04T20:00:20;9.63;;;2.08;;
44446;SDS011;30152;52.066;5.358;2023-06-04T20:02:46;9.25;;;1.90;;
44446;SDS011;30152;52.066;5.358;2023-06-04T20:05:12;11.02;;;1.90;;
44446;SDS011;30152;52.066;5.358;2023-06-04T20:07:39;8.35;;;1.83;;
44446;SDS011;30152;52.066;5.358;2023-06-04T20:10:06;8.45;;;2.20;;
44446;SDS011;30152;52.066;5.358;2023-06-04T20:12:32;8.18;;;2.13;;
44446;SDS011;30152;52.066;5.358;2023-06-04T20:14:57;8.55;;;2.40;;
44446;SDS011;30152;52.066;5.358;2023-06-04T20:17:23;7.63;;;2.10;;
44446;SDS011;30152;52.066;5.358;2023-06-04T20:19:49;6.63;;;1.77;;
44446;SDS011;30152;52.066;5.358;2023-06-04T20:22:15;8.25;;;1.90;;
44446;SDS011;30152;52.066;5.358;2023-06-04T20:24:41;6.00;;;1.90;;
44446;SDS011;30152;52.066;5.358;2023-06-04T20:27:07;8.75;;;2.33;;
44446;SDS011;30152;52.066;5.358;2023-06-04T20:29:33;8.18;;;2.00;;
44446;SDS011;30152;52.066;5.358;2023-06-04T20:31:59;6.88;;;2.20;;
44446;SDS011;30152;52.066;5.358;2023-06-04T20:34:25;6.20;;;2.60;;
44446;SDS011;30152;52.066;5.358;2023-06-04T20:36:51;6.88;;;2.53;;
44446;SDS011;30152;52.066;5.358;2023-06-04T20:39:20;8.48;;;2.38;;
44446;SDS011;30152;52.066;5.358;2023-06-04T20:41:48;8.38;;;2.33;;
44446;SDS011;30152;52.066;5.358;2023-06-04T20:44:15;7.93;;;2.20;;
44446;SDS011;30152;52.066;5.358;2023-06-04T20:46:42;9.38;;;2.35;;
44446;SDS011;30152;52.066;5.358;2023-06-04T20:49:09;6.80;;;1.95;;
44446;SDS011;30152;52.066;5.358;2023-06-04T20:51:34;7.20;;;2.30;;
44446;SDS011;30152;52.066;5.358;2023-06-04T20:54:00;7.38;;;2.42;;
44446;SDS011;30152;52.066;5.358;2023-06-04T20:56:26;7.40;;;2.50;;
